
Distance (Route):
Temperature : -26.3°C
Humidity : 15.9%
Pressure : 0hPa| Receiver | Frames | First received | Last received |
|---|---|---|---|
| LZ4TU-5 | 78 | 2026-08-31 11:38:48 | 2026-08-31 12:48:32 |
| Receiver | Date | Latitude | Longitude | Direction | Speed | Altitude | Climb | Temperature | Humidity | Pressure | Voltage | Killtimer | Uptime | BKT | XDATA |
|---|---|---|---|---|---|---|---|---|---|---|---|---|---|---|---|
| LZ4TU-5 | 2026-08-31 12:48:32 | 43.16581 | 20.34409 | 118° | 26km/h | 8710m | -19.5m/s | -26.3°C | 15.9% | 0hPa | 0V | 00:00:00 | 00:00:00 | 00:00:00 | |
| LZ4TU-5 | 2026-08-31 12:48:27 | 43.16599 | 20.34370 | 122° | 26km/h | 8801m | -19.6m/s | -27.1°C | 19.4% | 0hPa | 0V | 00:00:00 | 00:00:00 | 00:00:00 | |
| LZ4TU-5 | 2026-08-31 12:46:29 | 43.17719 | 20.32877 | 137° | 62km/h | 11239m | -21.9m/s | -47.6°C | 43.1% | 0hPa | 0V | 00:00:00 | 00:00:00 | 00:00:00 | |
| LZ4TU-5 | 2026-08-31 12:46:23 | 43.17776 | 20.32805 | 138° | 64km/h | 11352m | -22.2m/s | -48.6°C | 42.9% | 0hPa | 0V | 00:00:00 | 00:00:00 | 00:00:00 | |
| LZ4TU-5 | 2026-08-31 12:44:26 | 43.19164 | 20.30757 | 115° | 40km/h | 14243m | -27.2m/s | -62.5°C | 3.5% | 0hPa | 0V | 00:00:00 | 00:00:00 | 00:00:00 | |
| LZ4TU-5 | 2026-08-31 12:44:21 | 43.19185 | 20.30684 | 113° | 51km/h | 14381m | -27.4m/s | -62.6°C | 3.0% | 0hPa | 0V | 00:00:00 | 00:00:00 | 00:00:00 | |
| LZ4TU-5 | 2026-08-31 12:42:26 | 43.19175 | 20.29466 | 82° | 9km/h | 18098m | -36.8m/s | -59.0°C | 0.0% | 0hPa | 0V | 00:00:00 | 00:00:00 | 00:00:00 | |
| LZ4TU-5 | 2026-08-31 12:42:21 | 43.19175 | 20.29455 | 109° | 5km/h | 18252m | -37.7m/s | -59.6°C | 0.0% | 0hPa | 0V | 00:00:00 | 00:00:00 | 00:00:00 | |
| LZ4TU-5 | 2026-08-31 12:42:17 | 43.19171 | 20.29445 | 38° | 11km/h | 18445m | -38.4m/s | -59.4°C | 0.0% | 0hPa | 0V | 00:00:00 | 00:00:00 | 00:00:00 | |
| LZ4TU-5 | 2026-08-31 12:37:51 | 43.18517 | 20.29352 | 20° | 22km/h | 31427m | 6.5m/s | -43.2°C | 4.5% | 0hPa | 0V | 00:00:00 | 00:00:00 | 00:00:00 | |
| LZ4TU-5 | 2026-08-31 12:37:46 | 43.18495 | 20.29356 | 337° | 16km/h | 31389m | 8.4m/s | -43.2°C | 4.5% | 0hPa | 0V | 00:00:00 | 00:00:00 | 00:00:00 | |
| LZ4TU-5 | 2026-08-31 12:35:46 | 43.18094 | 20.29525 | 333° | 31km/h | 30548m | 7.9m/s | -43.5°C | 4.3% | 0hPa | 0V | 00:00:00 | 00:00:00 | 00:00:00 | |
| LZ4TU-5 | 2026-08-31 12:35:41 | 43.18060 | 20.29516 | 100° | 22km/h | 30514m | 7.8m/s | -43.9°C | 4.4% | 0hPa | 0V | 00:00:00 | 00:00:00 | 00:00:00 | |
| LZ4TU-5 | 2026-08-31 12:35:37 | 43.18071 | 20.29525 | 288° | 16km/h | 30477m | 7.6m/s | -44.0°C | 4.5% | 0hPa | 0V | 00:00:00 | 00:00:00 | 00:00:00 | |
| LZ4TU-5 | 2026-08-31 12:33:46 | 43.17880 | 20.29815 | 252° | 18km/h | 29666m | 8.2m/s | -42.5°C | 4.2% | 0hPa | 0V | 00:00:00 | 00:00:00 | 00:00:00 | |
| LZ4TU-5 | 2026-08-31 12:33:41 | 43.17876 | 20.29839 | 313° | 11km/h | 29626m | 7.9m/s | -42.2°C | 4.1% | 0hPa | 0V | 00:00:00 | 00:00:00 | 00:00:00 | |
| LZ4TU-5 | 2026-08-31 12:31:51 | 43.17680 | 20.30244 | 315° | 16km/h | 28830m | 7.3m/s | -43.8°C | 3.9% | 0hPa | 0V | 00:00:00 | 00:00:00 | 00:00:00 | |
| LZ4TU-5 | 2026-08-31 12:31:46 | 43.17671 | 20.30258 | 320° | 16km/h | 28795m | 8.3m/s | -44.2°C | 4.0% | 0hPa | 0V | 00:00:00 | 00:00:00 | 00:00:00 | |
| LZ4TU-5 | 2026-08-31 12:29:58 | 43.17380 | 20.30460 | 94° | 18km/h | 28077m | 6.4m/s | -45.8°C | 3.5% | 0hPa | 0V | 00:00:00 | 00:00:00 | 00:00:00 | |
| LZ4TU-5 | 2026-08-31 12:29:53 | 43.17379 | 20.30447 | 9° | 9km/h | 28045m | 8.9m/s | -46.0°C | 3.5% | 0hPa | 0V | 00:00:00 | 00:00:00 | 00:00:00 | |
| LZ4TU-5 | 2026-08-31 12:28:09 | 43.17459 | 20.30156 | 65° | 13km/h | 27335m | 7.6m/s | -46.8°C | 3.4% | 0hPa | 0V | 00:00:00 | 00:00:00 | 00:00:00 | |
| LZ4TU-5 | 2026-08-31 12:28:04 | 43.17463 | 20.30138 | 149° | 13km/h | 27302m | 6.1m/s | -46.9°C | 3.4% | 0hPa | 0V | 00:00:00 | 00:00:00 | 00:00:00 | |
| LZ4TU-5 | 2026-08-31 12:26:19 | 43.17520 | 20.30018 | 152° | 13km/h | 26571m | 7.4m/s | -47.6°C | 3.4% | 0hPa | 0V | 00:00:00 | 00:00:00 | 00:00:00 | |
| LZ4TU-5 | 2026-08-31 12:26:15 | 43.17529 | 20.30007 | 93° | 11km/h | 26546m | 6.1m/s | -47.8°C | 0% | 0hPa | 0V | 00:00:00 | 00:00:00 | 00:00:00 | |
| LZ4TU-5 | 2026-08-31 12:24:30 | 43.17649 | 20.29781 | 93° | 7km/h | 25867m | 7.6m/s | -49.0°C | 3.5% | 0hPa | 0V | 00:00:00 | 00:00:00 | 00:00:00 | |
| LZ4TU-5 | 2026-08-31 12:24:25 | 43.17649 | 20.29768 | 91° | 26km/h | 25836m | 6.2m/s | -49.1°C | 3.5% | 0hPa | 0V | 00:00:00 | 00:00:00 | 00:00:00 | |
| LZ4TU-5 | 2026-08-31 12:22:39 | 43.17477 | 20.29616 | 120° | 7km/h | 25127m | 8.7m/s | -49.3°C | 3.2% | 0hPa | 0V | 00:00:00 | 00:00:00 | 00:00:00 | |
| LZ4TU-5 | 2026-08-31 12:22:34 | 43.17489 | 20.29607 | 250° | 9km/h | 25094m | 5.6m/s | -49.2°C | 3.2% | 0hPa | 0V | 00:00:00 | 00:00:00 | 00:00:00 | |
| LZ4TU-5 | 2026-08-31 12:20:49 | 43.17401 | 20.29232 | 60° | 20km/h | 24403m | 3.5m/s | -51.6°C | 3.1% | 0hPa | 0V | 00:00:00 | 00:00:00 | 00:00:00 | |
| LZ4TU-5 | 2026-08-31 12:20:45 | 43.17389 | 20.29228 | 317° | 15km/h | 24376m | 6.3m/s | -51.7°C | 3.1% | 0hPa | 0V | 00:00:00 | 00:00:00 | 00:00:00 | |
| LZ4TU-5 | 2026-08-31 12:18:51 | 43.16995 | 20.29063 | 7° | 16km/h | 23658m | 3.7m/s | -52.6°C | 3.2% | 0hPa | 0V | 00:00:00 | 00:00:00 | 00:00:00 | |
| LZ4TU-5 | 2026-08-31 12:18:47 | 43.16986 | 20.29052 | 77° | 9km/h | 23630m | 7.3m/s | -52.6°C | 3.2% | 0hPa | 0V | 00:00:00 | 00:00:00 | 00:00:00 | |
| LZ4TU-5 | 2026-08-31 12:16:57 | 43.16641 | 20.29171 | 284° | 13km/h | 22920m | 5.0m/s | -52.8°C | 3.1% | 0hPa | 0V | 00:00:00 | 00:00:00 | 00:00:00 | |
| LZ4TU-5 | 2026-08-31 12:16:53 | 43.16631 | 20.29191 | 311° | 20km/h | 22889m | 5.2m/s | -52.7°C | 3.1% | 0hPa | 0V | 00:00:00 | 00:00:00 | 00:00:00 | |
| LZ4TU-5 | 2026-08-31 12:15:09 | 43.16275 | 20.29017 | 269° | 5km/h | 22228m | 7.9m/s | -53.8°C | 3.1% | 0hPa | 0V | 00:00:00 | 00:00:00 | 00:00:00 | |
| LZ4TU-5 | 2026-08-31 12:15:04 | 43.16284 | 20.29032 | 279° | 22km/h | 22196m | 5.6m/s | -53.8°C | 3.1% | 0hPa | 0V | 00:00:00 | 00:00:00 | 00:00:00 | |
| LZ4TU-5 | 2026-08-31 12:13:25 | 43.15919 | 20.29145 | 326° | 27km/h | 21581m | 6.9m/s | -53.3°C | 2.8% | 0hPa | 0V | 00:00:00 | 00:00:00 | 00:00:00 | |
| LZ4TU-5 | 2026-08-31 12:13:20 | 43.15897 | 20.29167 | 323° | 16km/h | 21548m | 5.9m/s | -53.0°C | 2.7% | 0hPa | 0V | 00:00:00 | 00:00:00 | 00:00:00 | |
| LZ4TU-5 | 2026-08-31 12:11:41 | 43.15556 | 20.29520 | 298° | 13km/h | 20952m | 4.3m/s | -54.4°C | 2.8% | 0hPa | 0V | 00:00:00 | 00:00:00 | 00:00:00 | |
| LZ4TU-5 | 2026-08-31 12:11:37 | 43.15539 | 20.29529 | 356° | 31km/h | 20928m | 6.2m/s | -54.5°C | 2.8% | 0hPa | 0V | 00:00:00 | 00:00:00 | 00:00:00 | |
| LZ4TU-5 | 2026-08-31 12:09:56 | 43.15244 | 20.29710 | 4° | 20km/h | 20329m | 4.0m/s | -55.7°C | 3.0% | 0hPa | 0V | 00:00:00 | 00:00:00 | 00:00:00 | |
| LZ4TU-5 | 2026-08-31 12:09:51 | 43.15232 | 20.29710 | 43° | 9km/h | 20298m | 4.2m/s | -55.5°C | 2.9% | 0hPa | 0V | 00:00:00 | 00:00:00 | 00:00:00 | |
| LZ4TU-5 | 2026-08-31 12:08:10 | 43.14916 | 20.29879 | 99° | 24km/h | 19705m | 6.7m/s | -56.6°C | 2.8% | 0hPa | 0V | 00:00:00 | 00:00:00 | 00:00:00 | |
| LZ4TU-5 | 2026-08-31 12:08:05 | 43.14918 | 20.29862 | 105° | 4km/h | 19677m | 7.5m/s | -57.0°C | 2.9% | 0hPa | 0V | 00:00:00 | 00:00:00 | 00:00:00 | |
| LZ4TU-5 | 2026-08-31 12:06:27 | 43.14761 | 20.29451 | 44° | 11km/h | 19095m | 5.3m/s | -58.0°C | 3.0% | 0hPa | 0V | 00:00:00 | 00:00:00 | 00:00:00 | |
| LZ4TU-5 | 2026-08-31 12:06:22 | 43.14747 | 20.29434 | 59° | 9km/h | 19064m | 6.6m/s | -57.9°C | 2.9% | 0hPa | 0V | 00:00:00 | 00:00:00 | 00:00:00 | |
| LZ4TU-5 | 2026-08-31 12:04:45 | 43.14506 | 20.29342 | 27° | 4km/h | 18508m | 6.0m/s | -58.4°C | 3.2% | 0hPa | 0V | 00:00:00 | 00:00:00 | 00:00:00 | |
| LZ4TU-5 | 2026-08-31 12:04:40 | 43.14496 | 20.29339 | 16° | 13km/h | 18480m | 4.8m/s | -58.6°C | 3.3% | 0hPa | 0V | 00:00:00 | 00:00:00 | 00:00:00 | |
| LZ4TU-5 | 2026-08-31 12:03:01 | 43.14519 | 20.29234 | 69° | 18km/h | 17914m | 6.0m/s | -58.4°C | 3.6% | 0hPa | 0V | 00:00:00 | 00:00:00 | 00:00:00 | |
| LZ4TU-5 | 2026-08-31 12:02:57 | 43.14509 | 20.29210 | 66° | 18km/h | 17892m | 4.5m/s | -58.5°C | 3.7% | 0hPa | 0V | 00:00:00 | 00:00:00 | 00:00:00 | |
| LZ4TU-5 | 2026-08-31 12:01:20 | 43.14136 | 20.28797 | 47° | 20km/h | 17344m | 6.6m/s | -58.1°C | 3.9% | 0hPa | 0V | 00:00:00 | 00:00:00 | 00:00:00 | |
| LZ4TU-5 | 2026-08-31 12:01:16 | 43.14128 | 20.28776 | 63° | 11km/h | 17321m | 5.9m/s | -58.3°C | 3.7% | 0hPa | 0V | 00:00:00 | 00:00:00 | 00:00:00 | |
| LZ4TU-5 | 2026-08-31 11:59:39 | 43.13800 | 20.28323 | 27° | 13km/h | 16782m | 7.2m/s | -59.9°C | 3.9% | 0hPa | 0V | 00:00:00 | 00:00:00 | 00:00:00 | |
| LZ4TU-5 | 2026-08-31 11:59:35 | 43.13779 | 20.28319 | 349° | 16km/h | 16760m | 6.6m/s | -59.9°C | 3.9% | 0hPa | 0V | 00:00:00 | 00:00:00 | 00:00:00 | |
| LZ4TU-5 | 2026-08-31 11:57:50 | 43.14175 | 20.27409 | 126° | 55km/h | 16156m | 4.6m/s | -60.9°C | 5.7% | 0hPa | 0V | 00:00:00 | 00:00:00 | 00:00:00 | |
| LZ4TU-5 | 2026-08-31 11:57:45 | 43.14202 | 20.27332 | 110° | 53km/h | 16131m | 5.0m/s | -60.9°C | 5.7% | 0hPa | 0V | 00:00:00 | 00:00:00 | 00:00:00 | |
| LZ4TU-5 | 2026-08-31 11:56:01 | 43.14233 | 20.25719 | 102° | 44km/h | 15563m | 4.8m/s | -61.8°C | 8.5% | 0hPa | 0V | 00:00:00 | 00:00:00 | 00:00:00 | |
| LZ4TU-5 | 2026-08-31 11:55:57 | 43.14239 | 20.25658 | 97° | 47km/h | 15544m | 4.5m/s | -62.1°C | 8.6% | 0hPa | 0V | 00:00:00 | 00:00:00 | 00:00:00 | |
| LZ4TU-5 | 2026-08-31 11:55:52 | 43.14253 | 20.25586 | 103° | 44km/h | 15518m | 4.3m/s | -62.1°C | 8.6% | 0hPa | 0V | 00:00:00 | 00:00:00 | 00:00:00 | |
| LZ4TU-5 | 2026-08-31 11:55:47 | 43.14260 | 20.25508 | 86° | 44km/h | 15492m | 3.9m/s | -62.1°C | 8.5% | 0hPa | 0V | 00:00:00 | 00:00:00 | 00:00:00 | |
| LZ4TU-5 | 2026-08-31 11:54:10 | 43.14300 | 20.24227 | 97° | 49km/h | 14977m | 5.8m/s | -61.4°C | 11.7% | 0hPa | 0V | 00:00:00 | 00:00:00 | 00:00:00 | |
| LZ4TU-5 | 2026-08-31 11:54:05 | 43.14306 | 20.24154 | 100° | 29km/h | 14951m | 6.4m/s | -61.2°C | 12.0% | 0hPa | 0V | 00:00:00 | 00:00:00 | 00:00:00 | |
| LZ4TU-5 | 2026-08-31 11:52:28 | 43.14703 | 20.22756 | 107° | 40km/h | 14404m | 5.0m/s | -63.5°C | 16.2% | 0hPa | 0V | 00:00:00 | 00:00:00 | 00:00:00 | |
| LZ4TU-5 | 2026-08-31 11:52:23 | 43.14723 | 20.22681 | 116° | 55km/h | 14379m | 4.5m/s | -63.7°C | 16.2% | 0hPa | 0V | 00:00:00 | 00:00:00 | 00:00:00 | |
| LZ4TU-5 | 2026-08-31 11:50:36 | 43.15600 | 20.21443 | 133° | 64km/h | 13744m | 4.1m/s | -61.3°C | 19.4% | 0hPa | 0V | 00:00:00 | 00:00:00 | 00:00:00 | |
| LZ4TU-5 | 2026-08-31 11:49:01 | 43.16606 | 20.19679 | 134° | 75km/h | 13204m | 5.5m/s | -59.8°C | 25.8% | 0hPa | 0V | 00:00:00 | 00:00:00 | 00:00:00 | |
| LZ4TU-5 | 2026-08-31 11:48:56 | 43.16671 | 20.19597 | 135° | 69km/h | 13176m | 4.7m/s | -59.7°C | 25.9% | 0hPa | 0V | 00:00:00 | 00:00:00 | 00:00:00 | |
| LZ4TU-5 | 2026-08-31 11:47:14 | 43.18016 | 20.17682 | 126° | 91km/h | 12620m | 6.0m/s | -57.9°C | 36.4% | 0hPa | 0V | 00:00:00 | 00:00:00 | 00:00:00 | |
| LZ4TU-5 | 2026-08-31 11:45:37 | 43.19321 | 20.15975 | 129° | 86km/h | 12052m | 5.0m/s | -54.4°C | 37.0% | 0hPa | 0V | 00:00:00 | 00:00:00 | 00:00:00 | |
| LZ4TU-5 | 2026-08-31 11:45:33 | 43.19369 | 20.15903 | 141° | 60km/h | 12027m | 7.8m/s | -54.2°C | 0% | 0hPa | 0V | 00:00:00 | 00:00:00 | 00:00:00 | |
| LZ4TU-5 | 2026-08-31 11:43:47 | 43.20737 | 20.14335 | 141° | 60km/h | 11413m | 5.5m/s | -49.7°C | 34.1% | 0hPa | 0V | 00:00:00 | 00:00:00 | 00:00:00 | |
| LZ4TU-5 | 2026-08-31 11:43:42 | 43.20797 | 20.14280 | 147° | 60km/h | 11387m | 5.3m/s | -49.5°C | 99.5% | 0hPa | 0V | 00:00:00 | 00:00:00 | 00:00:00 | |
| LZ4TU-5 | 2026-08-31 11:43:37 | 43.20854 | 20.14200 | 129° | 64km/h | 11364m | 3.2m/s | -49.4°C | 33.2% | 0hPa | 0V | 00:00:00 | 00:00:00 | 00:00:00 | |
| LZ4TU-5 | 2026-08-31 11:42:05 | 43.21923 | 20.12982 | 152° | 62km/h | 10837m | 4.6m/s | -44.9°C | 28.5% | 0hPa | 0V | 00:00:00 | 00:00:00 | 00:00:00 | |
| LZ4TU-5 | 2026-08-31 11:42:00 | 43.21982 | 20.12903 | 133° | 60km/h | 10812m | 4.7m/s | -44.7°C | 28.4% | 0hPa | 0V | 00:00:00 | 00:00:00 | 00:00:00 | |
| LZ4TU-5 | 2026-08-31 11:40:22 | 43.23090 | 20.11464 | 142° | 71km/h | 10262m | 6.7m/s | -39.9°C | 23.3% | 0hPa | 0V | 00:00:00 | 00:00:00 | 00:00:00 | |
| LZ4TU-5 | 2026-08-31 11:40:17 | 43.23162 | 20.11388 | 143° | 60km/h | 10238m | 4.2m/s | -39.7°C | 22.7% | 0hPa | 0V | 00:00:00 | 00:00:00 | 00:00:00 | |
| LZ4TU-5 | 2026-08-31 11:38:48 | 43.24220 | 20.10199 | 145° | 55km/h | 9740m | 7.7m/s | -35.7°C | 18.3% | 0hPa | 0V | 00:00:00 | 00:00:00 | 00:00:00 |